Time;durP1;ratioP1;P1;durP2;ratioP2;P2;SDS_P1;SDS_P2;PMS_P1;PMS_P2;Temp;Humidity;BMP_temperature;BMP_pressure;BME280_temperature;BME280_humidity;BME280_pressure;Samples;Min_cycle;Max_cycle;Signal;HPM_P1;HPM_P2
2022/03/11 00:01:25;;;;;;;6.07;2.23;;;;;;;;;;4933891;29;20237;-62
2022/03/11 00:03:52;;;;;;;6.30;2.90;;;;;;;;;;4941821;28;20226;-62
2022/03/11 00:06:19;;;;;;;3.63;2.20;;;;;;;;;;4948454;29;20569;-62
2022/03/11 00:08:46;;;;;;;4.70;2.57;;;;;;;;;;4946773;29;20203;-62
2022/03/11 00:11:16;;;;;;;3.93;2.43;;;;;;;;;;4947539;29;20598;-63
2022/03/11 00:13:43;;;;;;;2.40;1.73;;;;;;;;;;4947644;29;20344;-62
2022/03/11 00:16:10;;;;;;;3.23;2.23;;;;;;;;;;4939558;28;20641;-62
2022/03/11 00:18:37;;;;;;;3.87;2.30;;;;;;;;;;4960355;28;20199;-62
2022/03/11 00:21:05;;;;;;;2.27;2.07;;;;;;;;;;4960932;28;20232;-62
2022/03/11 00:23:32;;;;;;;5.90;2.80;;;;;;;;;;4960818;28;20209;-62
2022/03/11 00:26:00;;;;;;;2.83;2.47;;;;;;;;;;4958048;28;20231;-62
2022/03/11 00:28:29;;;;;;;5.10;2.77;;;;;;;;;;4960988;28;20265;-62
2022/03/11 00:30:56;;;;;;;4.63;2.47;;;;;;;;;;4959153;28;20206;-62
2022/03/11 00:33:23;;;;;;;3.77;2.53;;;;;;;;;;4959066;28;20222;-62
2022/03/11 00:35:50;;;;;;;7.67;3.27;;;;;;;;;;4963087;28;20295;-62
2022/03/11 00:38:17;;;;;;;6.63;3.90;;;;;;;;;;4958745;28;20208;-62
2022/03/11 00:40:44;;;;;;;3.60;3.00;;;;;;;;;;4956286;28;20214;-62
2022/03/11 00:43:11;;;;;;;8.00;4.07;;;;;;;;;;4962373;28;20211;-62
2022/03/11 00:45:40;;;;;;;6.47;3.07;;;;;;;;;;4953489;28;20212;-62
2022/03/11 00:48:07;;;;;;;6.33;2.83;;;;;;;;;;4943013;28;20238;-62
2022/03/11 00:50:34;;;;;;;3.43;2.90;;;;;;;;;;4940834;29;20208;-62
2022/03/11 00:53:01;;;;;;;2.67;2.37;;;;;;;;;;4943949;29;20840;-62
2022/03/11 00:55:29;;;;;;;2.00;1.70;;;;;;;;;;4943135;29;20211;-62
2022/03/11 00:57:56;;;;;;;6.83;3.63;;;;;;;;;;4958429;28;20496;-62
2022/03/11 01:00:23;;;;;;;5.77;3.40;;;;;;;;;;4961126;28;20212;-62
2022/03/11 01:02:52;;;;;;;5.70;3.37;;;;;;;;;;4957138;28;20325;-62
2022/03/11 01:05:19;;;;;;;3.87;3.10;;;;;;;;;;4960361;28;20595;-59
2022/03/11 01:07:46;;;;;;;4.07;2.77;;;;;;;;;;4957142;28;20541;-63
2022/03/11 01:10:13;;;;;;;6.67;3.57;;;;;;;;;;4958130;28;20431;-62
2022/03/11 01:12:40;;;;;;;6.67;3.43;;;;;;;;;;4958879;28;20199;-62
2022/03/11 01:15:09;;;;;;;4.47;2.70;;;;;;;;;;4959798;28;20693;-62
2022/03/11 01:17:36;;;;;;;7.73;3.87;;;;;;;;;;4960506;28;20211;-62
2022/03/11 01:20:05;;;;;;;5.33;3.33;;;;;;;;;;4956852;28;20214;-62
2022/03/11 01:22:32;;;;;;;5.07;3.23;;;;;;;;;;4956764;28;20634;-62
2022/03/11 01:24:59;;;;;;;3.73;2.60;;;;;;;;;;4958205;28;20235;-61
2022/03/11 01:27:26;;;;;;;4.60;2.60;;;;;;;;;;4960242;28;20235;-61
2022/03/11 01:29:53;;;;;;;4.90;2.63;;;;;;;;;;4955010;28;20676;-62
2022/03/11 01:32:20;;;;;;;10.77;3.23;;;;;;;;;;4960130;28;20202;-62
2022/03/11 01:34:47;;;;;;;3.53;2.20;;;;;;;;;;4959098;28;20206;-62
2022/03/11 01:37:16;;;;;;;3.13;1.77;;;;;;;;;;4960056;28;20210;-62
2022/03/11 01:39:43;;;;;;;6.00;3.17;;;;;;;;;;4958964;28;20217;-62
2022/03/11 01:42:12;;;;;;;3.70;2.33;;;;;;;;;;4957517;28;20230;-61
2022/03/11 01:44:39;;;;;;;3.33;2.40;;;;;;;;;;4957838;28;20294;-62
2022/03/11 01:47:07;;;;;;;3.70;2.63;;;;;;;;;;4957197;28;20964;-62
2022/03/11 01:49:34;;;;;;;5.73;3.13;;;;;;;;;;4958077;28;20233;-62
2022/03/11 01:52:01;;;;;;;5.93;3.13;;;;;;;;;;4960101;28;20540;-62
2022/03/11 01:54:30;;;;;;;3.40;2.83;;;;;;;;;;4960887;28;20290;-62
2022/03/11 01:56:57;;;;;;;2.97;2.63;;;;;;;;;;4959743;28;20223;-62
2022/03/11 01:59:24;;;;;;;2.23;2.03;;;;;;;;;;4957318;28;20209;-61
2022/03/11 02:01:51;;;;;;;6.27;2.70;;;;;;;;;;4958410;28;20234;-62
2022/03/11 02:04:18;;;;;;;4.53;2.70;;;;;;;;;;4960155;28;20217;-62
2022/03/11 02:06:46;;;;;;;2.40;2.17;;;;;;;;;;4957566;28;20202;-62
2022/03/11 02:09:13;;;;;;;4.00;2.83;;;;;;;;;;4954105;28;21060;-62
2022/03/11 02:11:41;;;;;;;5.73;2.63;;;;;;;;;;4956229;28;20207;-62
2022/03/11 02:14:08;;;;;;;5.33;2.10;;;;;;;;;;4958608;28;20211;-62
2022/03/11 02:16:37;;;;;;;8.73;2.83;;;;;;;;;;4956908;28;20674;-62
2022/03/11 02:19:05;;;;;;;4.00;2.90;;;;;;;;;;4957320;28;20570;-62
2022/03/11 02:21:36;;;;;;;4.13;2.60;;;;;;;;;;4955550;28;20315;-61
2022/03/11 02:24:05;;;;;;;7.27;2.67;;;;;;;;;;4957938;28;20211;-62
2022/03/11 02:26:32;;;;;;;3.27;2.20;;;;;;;;;;4954495;28;20698;-62
2022/03/11 02:29:00;;;;;;;2.80;2.60;;;;;;;;;;4956632;28;20235;-62
2022/03/11 02:31:28;;;;;;;5.80;2.43;;;;;;;;;;4959164;28;20249;-61
2022/03/11 02:33:56;;;;;;;3.33;2.93;;;;;;;;;;4960600;28;20214;-62
2022/03/11 02:36:23;;;;;;;5.57;3.33;;;;;;;;;;4957995;28;20211;-62
2022/03/11 02:38:50;;;;;;;5.03;2.97;;;;;;;;;;4958215;28;20615;-62
2022/03/11 02:41:19;;;;;;;7.00;4.10;;;;;;;;;;4957958;28;20203;-62
2022/03/11 02:43:46;;;;;;;3.43;2.03;;;;;;;;;;4957452;28;20211;-61
2022/03/11 02:46:14;;;;;;;4.83;2.87;;;;;;;;;;4957423;28;20203;-62
2022/03/11 02:48:41;;;;;;;3.30;2.10;;;;;;;;;;4957298;28;20210;-62
2022/03/11 02:51:08;;;;;;;2.63;1.97;;;;;;;;;;4958907;28;20212;-62
2022/03/11 02:53:37;;;;;;;5.20;1.87;;;;;;;;;;4954493;28;20207;-61
2022/03/11 02:56:05;;;;;;;3.67;3.37;;;;;;;;;;4959183;28;20223;-61
2022/03/11 02:58:34;;;;;;;10.30;3.60;;;;;;;;;;4956262;28;20265;-61
2022/03/11 03:01:02;;;;;;;4.70;3.77;;;;;;;;;;4958197;28;20214;-61
2022/03/11 03:03:29;;;;;;;1.30;1.03;;;;;;;;;;4958799;28;20250;-61
2022/03/11 03:05:56;;;;;;;4.53;3.60;;;;;;;;;;4955416;28;20217;-62
2022/03/11 03:08:23;;;;;;;7.27;3.40;;;;;;;;;;4957812;28;20210;-62
2022/03/11 03:10:50;;;;;;;3.63;3.17;;;;;;;;;;4958116;28;20240;-62
2022/03/11 03:13:18;;;;;;;5.47;1.83;;;;;;;;;;4957075;28;20202;-62
2022/03/11 03:15:46;;;;;;;3.33;2.53;;;;;;;;;;4955059;28;20678;-63
2022/03/11 03:18:13;;;;;;;8.83;2.70;;;;;;;;;;4953886;28;20209;-62
2022/03/11 03:20:40;;;;;;;2.77;2.50;;;;;;;;;;4958110;28;20211;-62
2022/03/11 03:23:07;;;;;;;3.60;2.03;;;;;;;;;;4953233;28;20230;-61
2022/03/11 03:25:41;;;;;;;5.80;2.53;;;;;;;;;;4950585;28;20257;-62
2022/03/11 03:28:08;;;;;;;6.30;3.00;;;;;;;;;;4955920;28;20234;-62
2022/03/11 03:30:35;;;;;;;7.97;3.23;;;;;;;;;;4952499;28;20222;-62
2022/03/11 03:33:04;;;;;;;5.07;3.30;;;;;;;;;;4957202;28;20210;-62
2022/03/11 03:35:31;;;;;;;6.40;2.93;;;;;;;;;;4951943;28;20211;-62
2022/03/11 03:37:58;;;;;;;9.77;4.03;;;;;;;;;;4958140;28;20314;-62
2022/03/11 03:40:25;;;;;;;2.60;1.43;;;;;;;;;;4962464;28;20209;-62
2022/03/11 03:42:52;;;;;;;5.60;2.93;;;;;;;;;;4958157;28;20304;-62
2022/03/11 03:45:19;;;;;;;1.73;1.63;;;;;;;;;;4955849;28;20206;-62
2022/03/11 03:47:46;;;;;;;6.53;3.77;;;;;;;;;;4958888;28;20681;-62
2022/03/11 03:50:15;;;;;;;6.43;3.80;;;;;;;;;;4957583;28;20206;-61
2022/03/11 03:52:43;;;;;;;7.73;3.23;;;;;;;;;;4957119;28;20679;-62
2022/03/11 03:55:11;;;;;;;4.60;3.53;;;;;;;;;;4960999;28;20203;-63
2022/03/11 03:57:38;;;;;;;3.27;2.40;;;;;;;;;;4957973;28;20255;-62
2022/03/11 04:00:06;;;;;;;7.97;4.33;;;;;;;;;;4961390;28;20211;-61
2022/03/11 04:02:33;;;;;;;4.57;2.07;;;;;;;;;;4954926;28;20237;-62
2022/03/11 04:05:01;;;;;;;4.30;2.57;;;;;;;;;;4961753;28;20199;-62
2022/03/11 04:07:29;;;;;;;7.90;3.40;;;;;;;;;;4958766;28;20896;-62
2022/03/11 04:09:56;;;;;;;6.33;3.97;;;;;;;;;;4960192;28;20206;-62
2022/03/11 04:12:23;;;;;;;9.20;4.77;;;;;;;;;;4959602;28;20668;-62
2022/03/11 04:14:50;;;;;;;7.07;4.53;;;;;;;;;;4959738;28;20210;-62
2022/03/11 04:17:17;;;;;;;10.20;4.47;;;;;;;;;;4960429;28;20199;-62
2022/03/11 04:19:46;;;;;;;6.23;4.40;;;;;;;;;;4959526;28;20298;-62
2022/03/11 04:22:13;;;;;;;5.23;3.40;;;;;;;;;;4946005;28;20241;-62
2022/03/11 04:24:41;;;;;;;6.23;4.87;;;;;;;;;;4945292;29;20211;-62
2022/03/11 04:27:08;;;;;;;5.40;3.23;;;;;;;;;;4946578;29;20235;-62
2022/03/11 04:29:37;;;;;;;4.43;3.30;;;;;;;;;;4943870;29;20274;-61
2022/03/11 04:32:04;;;;;;;7.53;3.77;;;;;;;;;;4947318;29;20246;-61
2022/03/11 04:34:31;;;;;;;4.53;3.67;;;;;;;;;;4943653;29;20214;-62
2022/03/11 04:36:58;;;;;;;6.43;4.23;;;;;;;;;;4945021;29;20214;-62
2022/03/11 04:39:26;;;;;;;7.10;4.63;;;;;;;;;;4941229;29;20244;-62
2022/03/11 04:41:55;;;;;;;4.60;2.70;;;;;;;;;;4941807;29;20211;-62
2022/03/11 04:44:22;;;;;;;7.83;4.47;;;;;;;;;;4951508;29;20214;-62
2022/03/11 04:46:49;;;;;;;7.40;4.10;;;;;;;;;;4952565;29;20214;-62
2022/03/11 04:49:16;;;;;;;5.50;3.30;;;;;;;;;;4951026;28;20210;-62
2022/03/11 04:51:44;;;;;;;6.17;4.20;;;;;;;;;;4948827;29;20857;-62
2022/03/11 04:54:11;;;;;;;10.17;4.07;;;;;;;;;;4951609;29;20243;-62
2022/03/11 04:56:38;;;;;;;4.73;4.10;;;;;;;;;;4951771;29;20214;-62
2022/03/11 04:59:07;;;;;;;8.20;4.43;;;;;;;;;;4951902;29;20307;-62
2022/03/11 05:01:34;;;;;;;6.27;3.10;;;;;;;;;;4948644;29;20717;-62
2022/03/11 05:04:01;;;;;;;11.20;6.00;;;;;;;;;;4951382;29;20241;-62
2022/03/11 05:06:28;;;;;;;11.03;4.50;;;;;;;;;;4951891;29;20787;-62
2022/03/11 05:08:55;;;;;;;6.27;3.17;;;;;;;;;;4949195;29;20261;-62
2022/03/11 05:11:22;;;;;;;9.77;4.43;;;;;;;;;;4948431;29;20207;-62
2022/03/11 05:13:49;;;;;;;8.17;3.90;;;;;;;;;;4950399;29;20306;-62
2022/03/11 05:16:17;;;;;;;2.73;2.33;;;;;;;;;;4947481;29;20206;-62
2022/03/11 05:18:44;;;;;;;6.03;3.73;;;;;;;;;;4951316;29;20217;-62
2022/03/11 05:21:12;;;;;;;9.80;3.97;;;;;;;;;;4952279;29;20626;-61
2022/03/11 05:23:39;;;;;;;12.30;4.10;;;;;;;;;;4948256;29;20234;-62
2022/03/11 05:26:24;;;;;;;6.63;4.27;;;;;;;;;;4948693;29;20243;-62
2022/03/11 05:28:51;;;;;;;5.67;3.67;;;;;;;;;;4949356;29;20250;-62
2022/03/11 05:31:19;;;;;;;8.07;3.27;;;;;;;;;;4949394;28;20214;-62
2022/03/11 05:33:46;;;;;;;7.17;4.00;;;;;;;;;;4949077;29;20210;-62
2022/03/11 05:36:13;;;;;;;4.40;2.73;;;;;;;;;;4950428;29;20199;-62
2022/03/11 05:38:40;;;;;;;5.73;3.73;;;;;;;;;;4949271;29;20207;-62
2022/03/11 05:41:08;;;;;;;2.97;2.53;;;;;;;;;;4951857;29;20625;-62
2022/03/11 05:43:36;;;;;;;6.13;2.73;;;;;;;;;;4947175;29;20265;-62
2022/03/11 05:46:03;;;;;;;4.50;3.43;;;;;;;;;;4948227;29;20214;-62
2022/03/11 05:48:32;;;;;;;3.33;2.90;;;;;;;;;;4950811;29;20210;-61
2022/03/11 05:50:59;;;;;;;5.13;3.53;;;;;;;;;;4951059;29;20207;-62
2022/03/11 05:53:26;;;;;;;4.63;3.03;;;;;;;;;;4945348;29;21430;-62
2022/03/11 05:55:53;;;;;;;5.07;3.73;;;;;;;;;;4948047;29;20238;-61
2022/03/11 05:58:20;;;;;;;5.47;3.00;;;;;;;;;;4950252;29;20217;-61
2022/03/11 06:00:49;;;;;;;4.80;2.97;;;;;;;;;;4945772;28;20260;-62
2022/03/11 06:03:16;;;;;;;7.07;3.47;;;;;;;;;;4947300;28;20234;-61
2022/03/11 06:05:44;;;;;;;6.70;2.80;;;;;;;;;;4944577;29;20585;-61
2022/03/11 06:08:11;;;;;;;7.90;3.70;;;;;;;;;;4949018;29;20680;-62
2022/03/11 06:10:38;;;;;;;3.13;2.83;;;;;;;;;;4945772;29;20699;-62
2022/03/11 06:13:06;;;;;;;3.07;2.43;;;;;;;;;;4952851;28;20219;-63
2022/03/11 06:15:33;;;;;;;4.60;2.57;;;;;;;;;;4940971;29;20226;-62
2022/03/11 06:18:00;;;;;;;2.57;1.97;;;;;;;;;;4937033;29;20270;-62
2022/03/11 06:20:29;;;;;;;3.90;2.73;;;;;;;;;;4932378;29;20228;-62
2022/03/11 06:22:58;;;;;;;3.13;2.80;;;;;;;;;;4932301;29;20235;-62
2022/03/11 06:25:25;;;;;;;1.17;1.10;;;;;;;;;;4947044;29;20281;-63
2022/03/11 06:27:52;;;;;;;5.77;2.67;;;;;;;;;;4944996;28;20243;-62
2022/03/11 06:30:19;;;;;;;10.87;3.43;;;;;;;;;;4932305;29;20221;-62
2022/03/11 06:32:47;;;;;;;2.47;2.20;;;;;;;;;;4949917;29;20210;-62
2022/03/11 06:35:15;;;;;;;4.17;2.07;;;;;;;;;;4951411;29;20221;-62
2022/03/11 06:37:42;;;;;;;7.73;3.40;;;;;;;;;;4948330;28;20242;-62
2022/03/11 06:40:11;;;;;;;6.03;3.20;;;;;;;;;;4941688;29;20314;-62
2022/03/11 06:42:39;;;;;;;5.57;3.40;;;;;;;;;;4938815;29;20200;-62
2022/03/11 06:45:07;;;;;;;6.03;3.17;;;;;;;;;;4934926;29;20306;-62
2022/03/11 06:47:34;;;;;;;3.43;2.63;;;;;;;;;;4941609;28;20214;-62
2022/03/11 06:50:01;;;;;;;5.40;2.83;;;;;;;;;;4932128;29;20696;-62
2022/03/11 06:52:28;;;;;;;2.90;2.67;;;;;;;;;;4938665;29;20328;-62
2022/03/11 06:54:55;;;;;;;6.57;3.67;;;;;;;;;;4950976;29;20226;-62
2022/03/11 06:57:23;;;;;;;5.30;3.30;;;;;;;;;;4950732;29;20214;-61
2022/03/11 06:59:50;;;;;;;3.10;2.10;;;;;;;;;;4932095;29;20223;-62
2022/03/11 07:02:18;;;;;;;1.47;1.43;;;;;;;;;;4931727;29;20218;-62
2022/03/11 07:04:45;;;;;;;3.43;2.97;;;;;;;;;;4931543;29;20234;-61
2022/03/11 07:07:12;;;;;;;1.50;1.17;;;;;;;;;;4940526;29;20711;-62
2022/03/11 07:09:39;;;;;;;5.23;3.20;;;;;;;;;;4938818;29;20210;-61
2022/03/11 07:12:06;;;;;;;4.60;1.23;;;;;;;;;;4951043;28;20208;-61
2022/03/11 07:14:36;;;;;;;1.70;1.60;;;;;;;;;;4956177;28;20206;-61
2022/03/11 07:17:03;;;;;;;1.10;1.10;;;;;;;;;;4964050;28;20209;-62
2022/03/11 07:19:30;;;;;;;2.20;2.00;;;;;;;;;;4961288;28;20207;-62
2022/03/11 07:21:58;;;;;;;2.97;2.23;;;;;;;;;;4960297;28;20218;-63
2022/03/11 07:24:25;;;;;;;1.43;1.13;;;;;;;;;;4969936;28;20229;-62
2022/03/11 07:26:52;;;;;;;1.13;1.13;;;;;;;;;;4966087;28;20218;-61
2022/03/11 07:29:19;;;;;;;2.80;1.90;;;;;;;;;;4961735;28;20234;-61
2022/03/11 07:31:47;;;;;;;3.17;1.93;;;;;;;;;;4935696;29;20270;-61
2022/03/11 07:34:15;;;;;;;4.10;2.43;;;;;;;;;;4949539;29;20210;-60
2022/03/11 07:36:42;;;;;;;5.10;2.97;;;;;;;;;;4950553;29;20218;-61
2022/03/11 07:39:10;;;;;;;5.30;2.93;;;;;;;;;;4950347;29;20237;-61
2022/03/11 07:41:38;;;;;;;3.93;2.20;;;;;;;;;;4941369;28;20693;-62
2022/03/11 07:44:05;;;;;;;3.73;2.70;;;;;;;;;;4951482;28;20226;-60
2022/03/11 07:46:33;;;;;;;3.20;2.30;;;;;;;;;;4966964;28;20199;-59
2022/03/11 07:49:02;;;;;;;3.93;1.63;;;;;;;;;;4948423;28;20212;-60
2022/03/11 07:51:30;;;;;;;4.37;2.03;;;;;;;;;;4940841;29;20204;-61
2022/03/11 07:53:57;;;;;;;4.37;2.70;;;;;;;;;;4931094;29;20204;-61
2022/03/11 07:56:24;;;;;;;1.27;1.07;;;;;;;;;;4931589;29;20290;-63
2022/03/11 07:58:54;;;;;;;3.03;2.83;;;;;;;;;;4950643;29;20225;-61
2022/03/11 08:01:21;;;;;;;1.13;1.03;;;;;;;;;;4935471;29;20235;-60
2022/03/11 08:03:48;;;;;;;3.17;2.03;;;;;;;;;;4945905;28;20318;-60
2022/03/11 08:06:17;;;;;;;3.30;1.77;;;;;;;;;;4941179;29;20275;-61
2022/03/11 08:08:44;;;;;;;3.60;1.90;;;;;;;;;;4949328;29;20203;-61
2022/03/11 08:11:13;;;;;;;2.73;1.80;;;;;;;;;;4949349;29;20707;-60
2022/03/11 08:13:40;;;;;;;3.00;2.63;;;;;;;;;;4950232;29;20761;-61
2022/03/11 08:16:07;;;;;;;4.67;2.50;;;;;;;;;;4950009;29;20215;-61
2022/03/11 08:18:35;;;;;;;2.63;2.43;;;;;;;;;;4949599;29;20231;-60
2022/03/11 08:21:02;;;;;;;2.17;1.80;;;;;;;;;;4949844;29;20207;-61
2022/03/11 08:23:31;;;;;;;2.47;1.57;;;;;;;;;;4938724;28;20753;-60
2022/03/11 08:25:58;;;;;;;3.70;2.77;;;;;;;;;;4952164;28;20281;-62
2022/03/11 08:28:25;;;;;;;2.97;2.43;;;;;;;;;;4941359;28;20249;-62
2022/03/11 08:30:53;;;;;;;6.97;2.90;;;;;;;;;;4952446;28;20275;-60
2022/03/11 08:33:22;;;;;;;2.80;2.40;;;;;;;;;;4960751;28;20304;-62
2022/03/11 08:35:49;;;;;;;3.43;2.30;;;;;;;;;;4970920;28;20218;-60
2022/03/11 08:38:16;;;;;;;3.10;1.53;;;;;;;;;;4952605;29;20213;-61
2022/03/11 08:40:45;;;;;;;3.67;2.37;;;;;;;;;;4952838;29;20205;-60
2022/03/11 08:43:12;;;;;;;3.33;1.40;;;;;;;;;;4952682;29;20212;-61
2022/03/11 08:45:39;;;;;;;1.60;1.20;;;;;;;;;;4934661;29;20213;-61
2022/03/11 08:48:06;;;;;;;14.87;1.77;;;;;;;;;;4946024;29;20324;-61
2022/03/11 08:50:34;;;;;;;3.40;2.63;;;;;;;;;;4934209;29;20222;-60
2022/03/11 08:53:01;;;;;;;1.80;1.67;;;;;;;;;;4938388;29;20281;-60
2022/03/11 08:55:28;;;;;;;2.30;1.67;;;;;;;;;;4969629;28;20897;-67
2022/03/11 08:57:57;;;;;;;3.03;1.93;;;;;;;;;;4954466;28;20218;-59
2022/03/11 09:00:26;;;;;;;3.17;2.27;;;;;;;;;;4951339;29;20273;-60
2022/03/11 09:02:53;;;;;;;1.63;1.47;;;;;;;;;;4940925;28;20303;-60
2022/03/11 09:05:20;;;;;;;2.23;1.00;;;;;;;;;;4934358;29;20245;-60
2022/03/11 09:07:48;;;;;;;2.87;1.73;;;;;;;;;;4939942;29;20214;-60
2022/03/11 09:10:18;;;;;;;2.37;1.67;;;;;;;;;;4951049;28;20242;-60
2022/03/11 09:13:04;;;;;;;1.43;1.33;;;;;;;;;;4945834;28;20281;-60
2022/03/11 09:15:32;;;;;;;3.33;2.53;;;;;;;;;;4925127;29;20207;-59
2022/03/11 09:17:59;;;;;;;1.57;1.27;;;;;;;;;;4942350;29;20216;-60
2022/03/11 09:20:27;;;;;;;5.87;3.03;;;;;;;;;;4941529;28;20217;-60
2022/03/11 09:22:54;;;;;;;4.33;2.00;;;;;;;;;;4932840;29;20692;-60
2022/03/11 09:25:22;;;;;;;3.67;3.00;;;;;;;;;;4942683;29;20227;-60
2022/03/11 09:27:49;;;;;;;6.23;3.07;;;;;;;;;;4950573;29;20254;-60
2022/03/11 09:30:16;;;;;;;4.80;3.00;;;;;;;;;;4938622;29;20242;-58
2022/03/11 09:32:45;;;;;;;4.77;2.53;;;;;;;;;;4951757;29;20203;-59
2022/03/11 09:35:12;;;;;;;5.00;2.53;;;;;;;;;;4950951;29;20206;-60
2022/03/11 09:37:39;;;;;;;2.83;2.27;;;;;;;;;;4951320;28;20203;-60
2022/03/11 09:40:07;;;;;;;2.50;2.23;;;;;;;;;;4949895;29;20218;-59
2022/03/11 09:42:34;;;;;;;4.67;3.47;;;;;;;;;;4948327;29;20282;-62
2022/03/11 09:45:01;;;;;;;3.57;2.57;;;;;;;;;;4939794;29;20230;-60
2022/03/11 09:47:28;;;;;;;1.80;1.70;;;;;;;;;;4949206;29;20238;-61
2022/03/11 09:49:57;;;;;;;5.40;3.20;;;;;;;;;;4950452;29;20215;-61
2022/03/11 09:52:24;;;;;;;4.57;3.00;;;;;;;;;;4949806;28;20219;-60
2022/03/11 09:54:51;;;;;;;4.73;3.20;;;;;;;;;;4950312;29;20631;-60
2022/03/11 09:57:22;;;;;;;3.07;2.03;;;;;;;;;;4950306;29;20215;-60
2022/03/11 09:59:49;;;;;;;5.20;2.90;;;;;;;;;;4950526;29;20669;-61
2022/03/11 10:02:16;;;;;;;5.73;2.77;;;;;;;;;;4950725;29;20215;-61
2022/03/11 10:04:48;;;;;;;1.60;1.50;;;;;;;;;;4950600;29;20603;-60
2022/03/11 10:07:23;;;;;;;5.07;2.97;;;;;;;;;;4950880;28;20238;-60
2022/03/11 10:09:51;;;;;;;4.70;3.27;;;;;;;;;;4950881;29;20213;-60
2022/03/11 10:12:22;;;;;;;3.10;2.67;;;;;;;;;;4950609;28;20246;-61
2022/03/11 10:14:55;;;;;;;4.10;2.83;;;;;;;;;;4950361;29;20211;-61
2022/03/11 10:17:23;;;;;;;6.50;3.53;;;;;;;;;;4950782;29;20218;-62
2022/03/11 10:19:54;;;;;;;3.30;2.03;;;;;;;;;;4950815;29;20223;-61
2022/03/11 10:22:25;;;;;;;3.83;3.17;;;;;;;;;;4950579;28;20242;-61
2022/03/11 10:24:52;;;;;;;4.30;2.93;;;;;;;;;;4950273;29;20732;-61
2022/03/11 10:27:23;;;;;;;4.47;2.80;;;;;;;;;;4950390;28;20253;-61
2022/03/11 10:29:50;;;;;;;5.90;3.20;;;;;;;;;;4950317;29;20215;-61
2022/03/11 10:32:23;;;;;;;5.07;3.77;;;;;;;;;;4950125;29;20222;-62
2022/03/11 10:34:50;;;;;;;3.73;3.17;;;;;;;;;;4950505;28;20238;-61
2022/03/11 10:37:17;;;;;;;3.90;2.80;;;;;;;;;;4950243;28;20219;-61
2022/03/11 10:39:46;;;;;;;5.17;3.80;;;;;;;;;;4949931;29;20725;-61
2022/03/11 10:42:18;;;;;;;3.10;1.70;;;;;;;;;;4949953;29;20207;-61
2022/03/11 10:44:55;;;;;;;3.30;3.00;;;;;;;;;;4949673;28;20478;-62
2022/03/11 10:47:22;;;;;;;2.67;2.47;;;;;;;;;;4949782;28;20221;-62
2022/03/11 10:49:50;;;;;;;4.33;2.60;;;;;;;;;;4947651;28;20207;-60
2022/03/11 10:52:29;;;;;;;4.73;2.87;;;;;;;;;;4949815;29;20699;-64
2022/03/11 10:54:57;;;;;;;2.73;1.60;;;;;;;;;;4949252;28;20622;-60
2022/03/11 10:57:34;;;;;;;5.50;3.23;;;;;;;;;;4950495;29;20225;-60
2022/03/11 11:00:16;;;;;;;3.43;2.53;;;;;;;;;;4948631;29;20210;-60
2022/03/11 11:02:44;;;;;;;7.00;3.80;;;;;;;;;;4949860;29;20210;-61
2022/03/11 11:05:13;;;;;;;4.00;3.20;;;;;;;;;;4942964;28;20231;-61
2022/03/11 11:07:41;;;;;;;5.37;3.13;;;;;;;;;;4944906;28;20212;-63
2022/03/11 11:10:10;;;;;;;5.63;3.47;;;;;;;;;;4946258;29;20290;-63
2022/03/11 11:12:38;;;;;;;4.77;3.47;;;;;;;;;;4950405;29;20589;-63
2022/03/11 11:15:11;;;;;;;3.87;2.50;;;;;;;;;;4948531;29;20203;-63
2022/03/11 11:17:39;;;;;;;4.30;3.00;;;;;;;;;;4950135;29;20218;-62
2022/03/11 11:20:07;;;;;;;2.57;2.37;;;;;;;;;;4950157;29;20222;-62
2022/03/11 11:22:36;;;;;;;5.80;3.43;;;;;;;;;;4940987;29;20240;-63
2022/03/11 11:25:04;;;;;;;4.33;3.40;;;;;;;;;;4946872;29;20243;-62
2022/03/11 11:27:36;;;;;;;1.40;1.30;;;;;;;;;;4950080;29;20290;-62
2022/03/11 11:30:03;;;;;;;4.10;3.40;;;;;;;;;;4949182;28;20207;-62
2022/03/11 11:32:31;;;;;;;6.33;3.37;;;;;;;;;;4948766;29;20693;-63
2022/03/11 11:35:22;;;;;;;5.90;3.00;;;;;;;;;;4943907;29;20211;-63
2022/03/11 11:37:49;;;;;;;5.27;2.70;;;;;;;;;;4931406;29;20223;-63
2022/03/11 11:40:21;;;;;;;5.17;4.33;;;;;;;;;;4935565;29;20662;-62
2022/03/11 11:43:08;;;;;;;3.43;3.13;;;;;;;;;;4950430;29;20582;-62
2022/03/11 11:45:43;;;;;;;5.40;3.10;;;;;;;;;;4949783;29;20235;-62
2022/03/11 11:48:25;;;;;;;3.30;3.00;;;;;;;;;;4938381;29;20213;-62
2022/03/11 11:50:52;;;;;;;4.77;3.57;;;;;;;;;;4950330;29;20214;-63
2022/03/11 11:53:32;;;;;;;3.03;2.13;;;;;;;;;;4948888;29;20226;-63
2022/03/11 11:55:59;;;;;;;5.90;3.30;;;;;;;;;;4950623;29;20211;-62
2022/03/11 11:58:27;;;;;;;3.40;2.17;;;;;;;;;;4949686;29;20215;-62
2022/03/11 12:00:57;;;;;;;3.40;2.33;;;;;;;;;;4947778;29;20638;-62
2022/03/11 12:03:48;;;;;;;2.70;1.83;;;;;;;;;;4940366;29;20214;-62
2022/03/11 12:06:30;;;;;;;4.73;2.30;;;;;;;;;;4953473;29;20242;-62
2022/03/11 12:08:57;;;;;;;2.23;2.03;;;;;;;;;;4953692;29;20211;-63
2022/03/11 12:11:42;;;;;;;2.57;2.27;;;;;;;;;;4941796;29;20740;-62
2022/03/11 12:14:09;;;;;;;3.67;3.30;;;;;;;;;;4953556;29;20214;-63
2022/03/11 12:16:56;;;;;;;4.73;3.10;;;;;;;;;;4949439;29;20700;-62
2022/03/11 12:19:41;;;;;;;3.70;3.00;;;;;;;;;;4948788;29;20218;-61
2022/03/11 12:22:22;;;;;;;3.27;2.57;;;;;;;;;;4952158;29;20218;-62
2022/03/11 12:24:58;;;;;;;3.60;2.77;;;;;;;;;;4934488;29;20243;-61
2022/03/11 12:27:44;;;;;;;8.40;2.83;;;;;;;;;;4934335;29;20267;-62
2022/03/11 12:30:11;;;;;;;9.73;3.30;;;;;;;;;;4946490;29;20222;-62
2022/03/11 12:32:39;;;;;;;3.63;3.03;;;;;;;;;;4953339;28;20214;-63
2022/03/11 12:35:09;;;;;;;6.07;3.57;;;;;;;;;;4952195;29;20214;-62
2022/03/11 12:37:36;;;;;;;4.13;2.40;;;;;;;;;;4947287;29;20267;-62
2022/03/11 12:40:09;;;;;;;3.50;3.20;;;;;;;;;;4951313;28;20215;-63
2022/03/11 12:42:39;;;;;;;6.33;3.50;;;;;;;;;;4953135;29;20560;-64
2022/03/11 12:45:07;;;;;;;3.23;2.23;;;;;;;;;;4953036;29;20234;-63
2022/03/11 12:47:37;;;;;;;3.57;3.27;;;;;;;;;;4949501;29;20246;-62
2022/03/11 12:50:06;;;;;;;4.77;3.40;;;;;;;;;;4964553;28;20207;-61
2022/03/11 12:52:38;;;;;;;4.30;2.83;;;;;;;;;;4953641;28;20207;-62
2022/03/11 12:55:20;;;;;;;7.07;3.17;;;;;;;;;;4942346;28;20579;-64
2022/03/11 12:57:50;;;;;;;4.97;3.30;;;;;;;;;;4971946;28;20249;-63
2022/03/11 13:00:19;;;;;;;5.37;3.37;;;;;;;;;;4971517;28;20218;-64
2022/03/11 13:02:47;;;;;;;3.80;3.43;;;;;;;;;;4966505;28;20210;-64
2022/03/11 13:05:21;;;;;;;3.83;3.00;;;;;;;;;;4955684;28;20727;-63
2022/03/11 13:07:49;;;;;;;1.50;1.23;;;;;;;;;;4962452;28;20211;-62
2022/03/11 13:10:22;;;;;;;3.77;3.43;;;;;;;;;;4952645;28;20223;-64
2022/03/11 13:12:51;;;;;;;3.63;2.47;;;;;;;;;;4964903;28;20297;-64
2022/03/11 13:15:22;;;;;;;5.63;3.17;;;;;;;;;;4957865;28;20211;-64
2022/03/11 13:17:51;;;;;;;6.40;3.53;;;;;;;;;;4967048;28;20214;-64
2022/03/11 13:20:31;;;;;;;3.47;2.73;;;;;;;;;;4959360;28;20675;-63
2022/03/11 13:23:01;;;;;;;4.50;3.53;;;;;;;;;;4949882;29;20215;-60
2022/03/11 13:25:29;;;;;;;6.23;2.63;;;;;;;;;;4951628;29;20293;-61
2022/03/11 13:27:56;;;;;;;2.57;2.30;;;;;;;;;;4952046;29;20243;-61
2022/03/11 13:30:30;;;;;;;3.10;2.07;;;;;;;;;;4952299;29;20210;-61
2022/03/11 13:32:58;;;;;;;5.43;3.40;;;;;;;;;;4952086;29;20696;-61
2022/03/11 13:35:28;;;;;;;4.63;3.50;;;;;;;;;;4948209;29;20666;-67
2022/03/11 13:37:55;;;;;;;3.70;3.03;;;;;;;;;;4951675;29;20222;-62
2022/03/11 13:40:24;;;;;;;5.20;2.60;;;;;;;;;;4951653;29;20211;-62
2022/03/11 13:42:54;;;;;;;3.57;3.07;;;;;;;;;;4951336;29;20215;-62
2022/03/11 13:45:26;;;;;;;2.43;1.93;;;;;;;;;;4950236;29;20661;-62
2022/03/11 13:48:02;;;;;;;4.53;3.20;;;;;;;;;;4951838;29;20309;-61
2022/03/11 13:50:29;;;;;;;7.67;3.40;;;;;;;;;;4937129;29;20327;-62
2022/03/11 13:52:57;;;;;;;11.37;3.30;;;;;;;;;;4946931;29;20218;-62
2022/03/11 13:55:33;;;;;;;3.80;3.07;;;;;;;;;;4952309;29;20219;-62
2022/03/11 13:58:13;;;;;;;4.30;2.80;;;;;;;;;;4950743;28;20210;-61
2022/03/11 14:00:40;;;;;;;5.67;3.83;;;;;;;;;;4929470;29;20313;-62
2022/03/11 14:03:13;;;;;;;2.43;2.27;;;;;;;;;;4944391;29;20203;-62
2022/03/11 14:05:41;;;;;;;3.83;3.10;;;;;;;;;;4935330;29;21069;-62
2022/03/11 14:08:08;;;;;;;3.77;3.47;;;;;;;;;;4949137;28;20215;-62
2022/03/11 14:10:37;;;;;;;6.53;2.70;;;;;;;;;;4951204;29;20206;-62
2022/03/11 14:13:05;;;;;;;4.87;3.10;;;;;;;;;;4947343;28;20222;-63
2022/03/11 14:15:33;;;;;;;4.57;3.20;;;;;;;;;;4946153;29;20250;-61
2022/03/11 14:18:00;;;;;;;3.93;2.63;;;;;;;;;;4949069;29;20419;-62
2022/03/11 14:20:27;;;;;;;4.33;3.07;;;;;;;;;;4938415;29;20249;-63
2022/03/11 14:22:54;;;;;;;3.50;3.20;;;;;;;;;;4950771;28;20706;-62
2022/03/11 14:25:21;;;;;;;3.37;2.93;;;;;;;;;;4950852;29;20274;-62
2022/03/11 14:27:49;;;;;;;4.40;2.60;;;;;;;;;;4950822;29;20251;-62
2022/03/11 14:30:16;;;;;;;3.67;2.90;;;;;;;;;;4950281;29;20938;-62
2022/03/11 14:32:43;;;;;;;2.00;1.80;;;;;;;;;;4950770;29;20286;-62
2022/03/11 14:35:10;;;;;;;3.77;2.93;;;;;;;;;;4948544;29;20214;-63
2022/03/11 14:37:38;;;;;;;4.80;3.63;;;;;;;;;;4946060;29;20258;-62
2022/03/11 14:40:05;;;;;;;3.47;3.13;;;;;;;;;;4948531;29;20222;-62
2022/03/11 14:42:35;;;;;;;4.13;3.23;;;;;;;;;;4950248;29;20215;-62
2022/03/11 14:45:05;;;;;;;4.63;3.27;;;;;;;;;;4949784;29;20273;-62
2022/03/11 14:47:32;;;;;;;5.00;3.63;;;;;;;;;;4950419;29;20603;-62
2022/03/11 14:49:59;;;;;;;5.00;3.30;;;;;;;;;;4950220;29;20210;-62
2022/03/11 14:52:27;;;;;;;4.30;2.97;;;;;;;;;;4950460;29;20215;-62